sensor_id;sensor_type;location;lat;lon;timestamp;temperature;humidity
20795;DHT22;28087;-33.874;151.240;2023-03-14T00:00:47;23.60;80.40
20795;DHT22;28087;-33.874;151.240;2023-03-14T00:03:23;23.50;80.30
20795;DHT22;28087;-33.874;151.240;2023-03-14T00:06:02;23.40;80.30
20795;DHT22;28087;-33.874;151.240;2023-03-14T00:08:39;23.50;80.30
20795;DHT22;28087;-33.874;151.240;2023-03-14T00:11:19;23.40;80.30
20795;DHT22;28087;-33.874;151.240;2023-03-14T00:13:56;23.50;80.30
20795;DHT22;28087;-33.874;151.240;2023-03-14T00:16:32;23.40;80.30
20795;DHT22;28087;-33.874;151.240;2023-03-14T00:19:12;23.40;80.10
20795;DHT22;28087;-33.874;151.240;2023-03-14T00:21:52;23.40;80.20
20795;DHT22;28087;-33.874;151.240;2023-03-14T00:24:30;23.50;79.90
20795;DHT22;28087;-33.874;151.240;2023-03-14T00:27:17;23.50;79.90
20795;DHT22;28087;-33.874;151.240;2023-03-14T00:29:53;23.50;79.70
20795;DHT22;28087;-33.874;151.240;2023-03-14T00:32:30;23.50;79.80
20795;DHT22;28087;-33.874;151.240;2023-03-14T00:35:07;23.60;79.90
20795;DHT22;28087;-33.874;151.240;2023-03-14T00:37:43;23.60;80.00
20795;DHT22;28087;-33.874;151.240;2023-03-14T00:40:18;23.80;80.10
20795;DHT22;28087;-33.874;151.240;2023-03-14T00:42:57;23.90;80.00
20795;DHT22;28087;-33.874;151.240;2023-03-14T00:45:32;24.00;80.20
20795;DHT22;28087;-33.874;151.240;2023-03-14T00:48:09;24.10;80.10
20795;DHT22;28087;-33.874;151.240;2023-03-14T00:50:46;24.20;79.70
20795;DHT22;28087;-33.874;151.240;2023-03-14T00:53:26;24.00;79.40
20795;DHT22;28087;-33.874;151.240;2023-03-14T00:56:06;24.00;79.70
20795;DHT22;28087;-33.874;151.240;2023-03-14T00:58:44;23.90;79.80
20795;DHT22;28087;-33.874;151.240;2023-03-14T01:01:21;23.90;79.70
20795;DHT22;28087;-33.874;151.240;2023-03-14T01:04:04;23.80;79.80
20795;DHT22;28087;-33.874;151.240;2023-03-14T01:06:40;23.80;79.60
20795;DHT22;28087;-33.874;151.240;2023-03-14T01:09:16;23.90;79.40
20795;DHT22;28087;-33.874;151.240;2023-03-14T01:11:52;23.90;79.20
20795;DHT22;28087;-33.874;151.240;2023-03-14T01:14:31;23.90;79.00
20795;DHT22;28087;-33.874;151.240;2023-03-14T01:17:06;23.90;78.30
20795;DHT22;28087;-33.874;151.240;2023-03-14T01:19:42;23.70;78.70
20795;DHT22;28087;-33.874;151.240;2023-03-14T01:22:18;23.90;78.90
20795;DHT22;28087;-33.874;151.240;2023-03-14T01:24:54;23.90;78.50
20795;DHT22;28087;-33.874;151.240;2023-03-14T01:27:33;23.90;78.70
20795;DHT22;28087;-33.874;151.240;2023-03-14T01:30:13;23.90;78.80
20795;DHT22;28087;-33.874;151.240;2023-03-14T01:32:52;23.90;78.10
20795;DHT22;28087;-33.874;151.240;2023-03-14T01:35:28;23.90;78.90
20795;DHT22;28087;-33.874;151.240;2023-03-14T01:38:11;23.90;78.40
20795;DHT22;28087;-33.874;151.240;2023-03-14T01:41:01;23.90;78.10
20795;DHT22;28087;-33.874;151.240;2023-03-14T01:43:41;24.00;78.30
20795;DHT22;28087;-33.874;151.240;2023-03-14T01:46:38;24.00;78.30
20795;DHT22;28087;-33.874;151.240;2023-03-14T01:49:25;24.00;78.10
20795;DHT22;28087;-33.874;151.240;2023-03-14T01:52:12;24.10;77.60
20795;DHT22;28087;-33.874;151.240;2023-03-14T01:54:50;24.00;78.60
20795;DHT22;28087;-33.874;151.240;2023-03-14T01:57:30;24.10;78.00
20795;DHT22;28087;-33.874;151.240;2023-03-14T02:00:10;24.20;78.20
20795;DHT22;28087;-33.874;151.240;2023-03-14T02:02:55;24.30;77.70
20795;DHT22;28087;-33.874;151.240;2023-03-14T02:05:34;24.30;76.90
20795;DHT22;28087;-33.874;151.240;2023-03-14T02:08:20;24.30;77.20
20795;DHT22;28087;-33.874;151.240;2023-03-14T02:11:00;24.40;77.40
20795;DHT22;28087;-33.874;151.240;2023-03-14T02:14:01;24.50;77.10
20795;DHT22;28087;-33.874;151.240;2023-03-14T02:17:01;24.40;76.40
20795;DHT22;28087;-33.874;151.240;2023-03-14T02:20:17;24.30;75.80
20795;DHT22;28087;-33.874;151.240;2023-03-14T02:23:01;24.30;75.80
20795;DHT22;28087;-33.874;151.240;2023-03-14T02:25:43;24.20;75.30
20795;DHT22;28087;-33.874;151.240;2023-03-14T02:28:24;24.20;75.60
20795;DHT22;28087;-33.874;151.240;2023-03-14T02:31:04;24.30;75.60
20795;DHT22;28087;-33.874;151.240;2023-03-14T02:33:41;24.30;74.90
20795;DHT22;28087;-33.874;151.240;2023-03-14T02:36:23;24.30;74.70
20795;DHT22;28087;-33.874;151.240;2023-03-14T02:39:07;24.20;74.50
20795;DHT22;28087;-33.874;151.240;2023-03-14T02:41:47;24.20;74.40
20795;DHT22;28087;-33.874;151.240;2023-03-14T02:44:25;24.20;75.10
20795;DHT22;28087;-33.874;151.240;2023-03-14T02:47:05;24.30;75.40
20795;DHT22;28087;-33.874;151.240;2023-03-14T02:49:44;24.30;75.50
20795;DHT22;28087;-33.874;151.240;2023-03-14T02:52:20;24.20;75.60
20795;DHT22;28087;-33.874;151.240;2023-03-14T02:54:56;24.30;75.90
20795;DHT22;28087;-33.874;151.240;2023-03-14T02:57:31;24.20;76.20
20795;DHT22;28087;-33.874;151.240;2023-03-14T03:00:11;24.20;75.50
20795;DHT22;28087;-33.874;151.240;2023-03-14T03:02:48;24.30;75.90
20795;DHT22;28087;-33.874;151.240;2023-03-14T03:05:26;24.40;76.00
20795;DHT22;28087;-33.874;151.240;2023-03-14T03:08:06;24.40;76.00
20795;DHT22;28087;-33.874;151.240;2023-03-14T03:10:46;24.50;76.00
20795;DHT22;28087;-33.874;151.240;2023-03-14T03:13:26;24.50;76.00
20795;DHT22;28087;-33.874;151.240;2023-03-14T03:16:07;24.40;75.70
20795;DHT22;28087;-33.874;151.240;2023-03-14T03:18:43;24.40;76.00
20795;DHT22;28087;-33.874;151.240;2023-03-14T03:21:19;24.50;76.00
20795;DHT22;28087;-33.874;151.240;2023-03-14T03:23:57;24.30;76.20
20795;DHT22;28087;-33.874;151.240;2023-03-14T03:26:36;24.30;76.20
20795;DHT22;28087;-33.874;151.240;2023-03-14T03:29:13;24.30;76.90
20795;DHT22;28087;-33.874;151.240;2023-03-14T03:31:50;24.40;77.10
20795;DHT22;28087;-33.874;151.240;2023-03-14T03:34:28;24.40;77.10
20795;DHT22;28087;-33.874;151.240;2023-03-14T03:37:03;24.50;77.20
20795;DHT22;28087;-33.874;151.240;2023-03-14T03:39:42;24.40;77.50
20795;DHT22;28087;-33.874;151.240;2023-03-14T03:42:18;24.50;77.70
20795;DHT22;28087;-33.874;151.240;2023-03-14T03:44:54;24.50;77.50
20795;DHT22;28087;-33.874;151.240;2023-03-14T03:47:33;24.50;77.30
20795;DHT22;28087;-33.874;151.240;2023-03-14T03:50:10;24.50;77.50
20795;DHT22;28087;-33.874;151.240;2023-03-14T03:52:46;24.60;77.00
20795;DHT22;28087;-33.874;151.240;2023-03-14T03:55:22;24.50;76.80
20795;DHT22;28087;-33.874;151.240;2023-03-14T03:57:57;24.80;76.80
20795;DHT22;28087;-33.874;151.240;2023-03-14T04:00:33;25.00;76.30
20795;DHT22;28087;-33.874;151.240;2023-03-14T04:03:10;25.10;74.90
20795;DHT22;28087;-33.874;151.240;2023-03-14T04:05:57;25.20;74.80
20795;DHT22;28087;-33.874;151.240;2023-03-14T04:08:34;25.30;74.40
20795;DHT22;28087;-33.874;151.240;2023-03-14T04:11:11;25.40;74.10
20795;DHT22;28087;-33.874;151.240;2023-03-14T04:13:56;25.20;73.80
20795;DHT22;28087;-33.874;151.240;2023-03-14T04:16:32;25.00;74.00
20795;DHT22;28087;-33.874;151.240;2023-03-14T04:19:16;24.90;75.00
20795;DHT22;28087;-33.874;151.240;2023-03-14T04:21:53;24.90;75.00
20795;DHT22;28087;-33.874;151.240;2023-03-14T04:24:35;24.90;75.50
20795;DHT22;28087;-33.874;151.240;2023-03-14T04:27:11;24.80;75.60
20795;DHT22;28087;-33.874;151.240;2023-03-14T04:29:48;24.70;74.80
20795;DHT22;28087;-33.874;151.240;2023-03-14T04:32:40;24.60;75.40
20795;DHT22;28087;-33.874;151.240;2023-03-14T04:35:18;24.60;75.90
20795;DHT22;28087;-33.874;151.240;2023-03-14T04:37:59;24.70;76.10
20795;DHT22;28087;-33.874;151.240;2023-03-14T04:40:38;24.70;76.10
20795;DHT22;28087;-33.874;151.240;2023-03-14T04:43:14;24.80;75.90
20795;DHT22;28087;-33.874;151.240;2023-03-14T04:46:03;24.80;76.30
20795;DHT22;28087;-33.874;151.240;2023-03-14T04:48:39;24.70;76.30
20795;DHT22;28087;-33.874;151.240;2023-03-14T04:51:17;24.60;76.50
20795;DHT22;28087;-33.874;151.240;2023-03-14T04:53:55;24.70;76.60
20795;DHT22;28087;-33.874;151.240;2023-03-14T04:56:32;24.80;76.90
20795;DHT22;28087;-33.874;151.240;2023-03-14T04:59:10;24.80;76.60
20795;DHT22;28087;-33.874;151.240;2023-03-14T05:01:46;24.80;76.50
20795;DHT22;28087;-33.874;151.240;2023-03-14T05:04:48;24.90;76.60
20795;DHT22;28087;-33.874;151.240;2023-03-14T05:07:43;25.00;76.30
20795;DHT22;28087;-33.874;151.240;2023-03-14T05:10:42;25.00;76.20
20795;DHT22;28087;-33.874;151.240;2023-03-14T05:13:35;25.10;76.20
20795;DHT22;28087;-33.874;151.240;2023-03-14T05:16:20;25.30;75.90
20795;DHT22;28087;-33.874;151.240;2023-03-14T05:19:15;25.40;75.80
20795;DHT22;28087;-33.874;151.240;2023-03-14T05:22:08;25.50;75.50
20795;DHT22;28087;-33.874;151.240;2023-03-14T05:25:04;25.30;75.30
20795;DHT22;28087;-33.874;151.240;2023-03-14T05:27:55;25.30;75.40
20795;DHT22;28087;-33.874;151.240;2023-03-14T05:31:06;25.30;75.50
20795;DHT22;28087;-33.874;151.240;2023-03-14T05:34:02;25.30;75.50
20795;DHT22;28087;-33.874;151.240;2023-03-14T05:37:00;25.30;75.50
20795;DHT22;28087;-33.874;151.240;2023-03-14T05:39:42;25.30;75.60
20795;DHT22;28087;-33.874;151.240;2023-03-14T05:42:49;25.00;75.70
20795;DHT22;28087;-33.874;151.240;2023-03-14T05:45:53;25.00;76.10
20795;DHT22;28087;-33.874;151.240;2023-03-14T05:48:47;25.10;75.80
20795;DHT22;28087;-33.874;151.240;2023-03-14T05:52:00;25.00;75.80
20795;DHT22;28087;-33.874;151.240;2023-03-14T05:54:53;25.00;76.20
20795;DHT22;28087;-33.874;151.240;2023-03-14T05:57:53;25.10;76.10
20795;DHT22;28087;-33.874;151.240;2023-03-14T06:00:41;24.90;76.10
20795;DHT22;28087;-33.874;151.240;2023-03-14T06:03:27;24.90;76.50
20795;DHT22;28087;-33.874;151.240;2023-03-14T06:06:03;25.00;76.00
20795;DHT22;28087;-33.874;151.240;2023-03-14T06:08:39;25.10;76.00
20795;DHT22;28087;-33.874;151.240;2023-03-14T06:11:14;25.10;75.90
20795;DHT22;28087;-33.874;151.240;2023-03-14T06:14:00;25.10;76.00
20795;DHT22;28087;-33.874;151.240;2023-03-14T06:16:36;25.10;76.30
20795;DHT22;28087;-33.874;151.240;2023-03-14T06:19:13;25.10;76.10
20795;DHT22;28087;-33.874;151.240;2023-03-14T06:21:48;25.10;76.40
20795;DHT22;28087;-33.874;151.240;2023-03-14T06:24:27;25.10;76.30
20795;DHT22;28087;-33.874;151.240;2023-03-14T06:27:03;25.00;76.40
20795;DHT22;28087;-33.874;151.240;2023-03-14T06:29:40;25.10;76.60
20795;DHT22;28087;-33.874;151.240;2023-03-14T06:32:15;25.00;76.80
20795;DHT22;28087;-33.874;151.240;2023-03-14T06:34:55;24.90;77.00
20795;DHT22;28087;-33.874;151.240;2023-03-14T06:37:38;25.00;76.70
20795;DHT22;28087;-33.874;151.240;2023-03-14T06:40:15;24.80;77.00
20795;DHT22;28087;-33.874;151.240;2023-03-14T06:43:06;24.90;76.80
20795;DHT22;28087;-33.874;151.240;2023-03-14T06:45:46;24.90;76.90
20795;DHT22;28087;-33.874;151.240;2023-03-14T06:48:22;24.80;76.90
20795;DHT22;28087;-33.874;151.240;2023-03-14T06:50:58;24.80;76.90
20795;DHT22;28087;-33.874;151.240;2023-03-14T06:53:34;24.80;77.00
20795;DHT22;28087;-33.874;151.240;2023-03-14T06:56:10;24.80;77.00
20795;DHT22;28087;-33.874;151.240;2023-03-14T06:58:47;24.80;77.00
20795;DHT22;28087;-33.874;151.240;2023-03-14T07:01:28;24.90;76.80
20795;DHT22;28087;-33.874;151.240;2023-03-14T07:04:10;24.80;76.70
20795;DHT22;28087;-33.874;151.240;2023-03-14T07:06:50;24.80;76.80
20795;DHT22;28087;-33.874;151.240;2023-03-14T07:09:29;24.90;76.70
20795;DHT22;28087;-33.874;151.240;2023-03-14T07:12:06;24.90;76.80
20795;DHT22;28087;-33.874;151.240;2023-03-14T07:14:42;24.60;77.30
20795;DHT22;28087;-33.874;151.240;2023-03-14T07:17:20;24.60;77.40
20795;DHT22;28087;-33.874;151.240;2023-03-14T07:19:56;24.70;76.70
20795;DHT22;28087;-33.874;151.240;2023-03-14T07:22:31;24.50;76.50
20795;DHT22;28087;-33.874;151.240;2023-03-14T07:25:08;24.30;76.90
20795;DHT22;28087;-33.874;151.240;2023-03-14T07:27:45;24.20;78.10
20795;DHT22;28087;-33.874;151.240;2023-03-14T07:30:21;23.90;78.30
20795;DHT22;28087;-33.874;151.240;2023-03-14T07:32:59;23.90;78.90
20795;DHT22;28087;-33.874;151.240;2023-03-14T07:35:35;23.90;78.90
20795;DHT22;28087;-33.874;151.240;2023-03-14T07:38:13;24.00;79.00
20795;DHT22;28087;-33.874;151.240;2023-03-14T07:41:21;24.10;79.10
20795;DHT22;28087;-33.874;151.240;2023-03-14T07:44:17;24.00;79.00
20795;DHT22;28087;-33.874;151.240;2023-03-14T07:46:52;23.90;79.40
20795;DHT22;28087;-33.874;151.240;2023-03-14T07:49:30;23.80;79.80
20795;DHT22;28087;-33.874;151.240;2023-03-14T07:52:05;23.70;80.10
20795;DHT22;28087;-33.874;151.240;2023-03-14T07:54:41;23.70;80.50
20795;DHT22;28087;-33.874;151.240;2023-03-14T07:57:16;23.80;80.50
20795;DHT22;28087;-33.874;151.240;2023-03-14T07:59:53;23.70;80.50
20795;DHT22;28087;-33.874;151.240;2023-03-14T08:02:29;23.70;80.50
20795;DHT22;28087;-33.874;151.240;2023-03-14T08:05:07;23.80;80.50
20795;DHT22;28087;-33.874;151.240;2023-03-14T08:07:42;23.70;80.50
20795;DHT22;28087;-33.874;151.240;2023-03-14T08:10:18;23.70;80.50
20795;DHT22;28087;-33.874;151.240;2023-03-14T08:12:58;23.80;80.50
20795;DHT22;28087;-33.874;151.240;2023-03-14T08:15:33;23.70;80.50
20795;DHT22;28087;-33.874;151.240;2023-03-14T08:18:09;23.70;80.50
20795;DHT22;28087;-33.874;151.240;2023-03-14T08:20:46;23.60;80.50
20795;DHT22;28087;-33.874;151.240;2023-03-14T08:23:22;23.70;80.50
20795;DHT22;28087;-33.874;151.240;2023-03-14T08:25:58;23.80;80.50
20795;DHT22;28087;-33.874;151.240;2023-03-14T08:28:33;23.70;80.50
20795;DHT22;28087;-33.874;151.240;2023-03-14T08:31:09;23.70;80.50
20795;DHT22;28087;-33.874;151.240;2023-03-14T08:33:45;23.60;80.30
20795;DHT22;28087;-33.874;151.240;2023-03-14T08:36:22;23.70;80.50
20795;DHT22;28087;-33.874;151.240;2023-03-14T08:38:58;23.70;80.50
20795;DHT22;28087;-33.874;151.240;2023-03-14T08:41:34;23.70;80.50
20795;DHT22;28087;-33.874;151.240;2023-03-14T08:44:13;23.60;80.30
20795;DHT22;28087;-33.874;151.240;2023-03-14T08:46:50;23.70;80.50
20795;DHT22;28087;-33.874;151.240;2023-03-14T08:49:25;23.60;80.30
20795;DHT22;28087;-33.874;151.240;2023-03-14T08:52:05;23.60;80.30
20795;DHT22;28087;-33.874;151.240;2023-03-14T08:54:40;23.60;80.50
20795;DHT22;28087;-33.874;151.240;2023-03-14T08:57:16;23.70;80.50
20795;DHT22;28087;-33.874;151.240;2023-03-14T08:59:51;23.60;80.50
20795;DHT22;28087;-33.874;151.240;2023-03-14T09:02:27;23.60;80.50
20795;DHT22;28087;-33.874;151.240;2023-03-14T09:05:03;23.60;80.30
20795;DHT22;28087;-33.874;151.240;2023-03-14T09:07:41;23.60;80.30
20795;DHT22;28087;-33.874;151.240;2023-03-14T09:10:16;23.60;80.30
20795;DHT22;28087;-33.874;151.240;2023-03-14T09:12:52;23.60;80.50
20795;DHT22;28087;-33.874;151.240;2023-03-14T09:15:29;23.60;80.30
20795;DHT22;28087;-33.874;151.240;2023-03-14T09:18:05;23.60;80.30
20795;DHT22;28087;-33.874;151.240;2023-03-14T09:20:41;23.60;80.30
20795;DHT22;28087;-33.874;151.240;2023-03-14T09:23:19;23.50;80.30
20795;DHT22;28087;-33.874;151.240;2023-03-14T09:25:56;23.50;80.30
20795;DHT22;28087;-33.874;151.240;2023-03-14T09:28:31;23.50;80.30
20795;DHT22;28087;-33.874;151.240;2023-03-14T09:31:08;23.50;80.30
20795;DHT22;28087;-33.874;151.240;2023-03-14T09:33:44;23.50;80.30
20795;DHT22;28087;-33.874;151.240;2023-03-14T09:36:20;23.60;80.30
20795;DHT22;28087;-33.874;151.240;2023-03-14T09:38:57;23.50;80.30
20795;DHT22;28087;-33.874;151.240;2023-03-14T09:41:34;23.60;80.30
20795;DHT22;28087;-33.874;151.240;2023-03-14T09:44:15;23.60;80.30
20795;DHT22;28087;-33.874;151.240;2023-03-14T09:46:54;23.70;80.50
20795;DHT22;28087;-33.874;151.240;2023-03-14T09:49:33;23.60;80.50
20795;DHT22;28087;-33.874;151.240;2023-03-14T09:52:13;23.50;80.30
20795;DHT22;28087;-33.874;151.240;2023-03-14T09:54:53;23.60;80.50
20795;DHT22;28087;-33.874;151.240;2023-03-14T09:57:29;23.50;80.30
20795;DHT22;28087;-33.874;151.240;2023-03-14T10:00:14;23.60;80.30
20795;DHT22;28087;-33.874;151.240;2023-03-14T10:02:54;23.70;80.50
20795;DHT22;28087;-33.874;151.240;2023-03-14T10:05:30;23.60;80.30
20795;DHT22;28087;-33.874;151.240;2023-03-14T10:08:08;23.60;80.30
20795;DHT22;28087;-33.874;151.240;2023-03-14T10:10:47;23.50;80.30
20795;DHT22;28087;-33.874;151.240;2023-03-14T10:13:23;23.50;80.30
20795;DHT22;28087;-33.874;151.240;2023-03-14T10:16:02;23.60;80.30
20795;DHT22;28087;-33.874;151.240;2023-03-14T10:18:38;23.40;80.30
20795;DHT22;28087;-33.874;151.240;2023-03-14T10:21:24;23.50;80.30
20795;DHT22;28087;-33.874;151.240;2023-03-14T10:24:10;23.40;80.30
20795;DHT22;28087;-33.874;151.240;2023-03-14T10:26:58;23.40;80.30
20795;DHT22;28087;-33.874;151.240;2023-03-14T10:29:34;23.40;80.30
20795;DHT22;28087;-33.874;151.240;2023-03-14T10:32:34;23.50;80.30
20795;DHT22;28087;-33.874;151.240;2023-03-14T10:35:20;23.40;80.30
20795;DHT22;28087;-33.874;151.240;2023-03-14T10:37:58;23.40;80.30
20795;DHT22;28087;-33.874;151.240;2023-03-14T10:40:39;23.50;80.30
20795;DHT22;28087;-33.874;151.240;2023-03-14T10:43:22;23.40;80.30
20795;DHT22;28087;-33.874;151.240;2023-03-14T10:46:01;23.50;80.30
20795;DHT22;28087;-33.874;151.240;2023-03-14T10:48:37;23.50;80.30
20795;DHT22;28087;-33.874;151.240;2023-03-14T10:51:22;23.50;80.30
20795;DHT22;28087;-33.874;151.240;2023-03-14T10:54:00;23.50;80.30
20795;DHT22;28087;-33.874;151.240;2023-03-14T10:56:37;23.50;80.30
20795;DHT22;28087;-33.874;151.240;2023-03-14T10:59:15;23.50;80.30
20795;DHT22;28087;-33.874;151.240;2023-03-14T11:01:55;23.50;80.30
20795;DHT22;28087;-33.874;151.240;2023-03-14T11:04:49;23.50;80.30
20795;DHT22;28087;-33.874;151.240;2023-03-14T11:07:35;23.50;80.30
20795;DHT22;28087;-33.874;151.240;2023-03-14T11:10:18;23.40;80.30
20795;DHT22;28087;-33.874;151.240;2023-03-14T11:13:04;23.50;80.30
20795;DHT22;28087;-33.874;151.240;2023-03-14T11:15:51;23.50;80.30
20795;DHT22;28087;-33.874;151.240;2023-03-14T11:19:11;23.50;80.30
20795;DHT22;28087;-33.874;151.240;2023-03-14T11:21:53;23.50;80.30
20795;DHT22;28087;-33.874;151.240;2023-03-14T11:24:50;23.50;80.30
20795;DHT22;28087;-33.874;151.240;2023-03-14T11:27:34;23.40;80.30
20795;DHT22;28087;-33.874;151.240;2023-03-14T11:30:26;23.50;80.30
20795;DHT22;28087;-33.874;151.240;2023-03-14T11:33:12;23.40;80.30
20795;DHT22;28087;-33.874;151.240;2023-03-14T11:35:55;23.40;80.30
20795;DHT22;28087;-33.874;151.240;2023-03-14T11:38:37;23.40;80.30
20795;DHT22;28087;-33.874;151.240;2023-03-14T11:41:17;23.40;80.30
20795;DHT22;28087;-33.874;151.240;2023-03-14T11:43:55;23.50;80.30
20795;DHT22;28087;-33.874;151.240;2023-03-14T11:46:33;23.50;80.30
20795;DHT22;28087;-33.874;151.240;2023-03-14T11:49:24;23.40;80.30
20795;DHT22;28087;-33.874;151.240;2023-03-14T11:52:03;23.40;80.30
20795;DHT22;28087;-33.874;151.240;2023-03-14T11:54:44;23.40;80.30
20795;DHT22;28087;-33.874;151.240;2023-03-14T11:57:23;23.40;80.30
20795;DHT22;28087;-33.874;151.240;2023-03-14T12:00:04;23.40;80.30
20795;DHT22;28087;-33.874;151.240;2023-03-14T12:02:53;23.30;80.30
20795;DHT22;28087;-33.874;151.240;2023-03-14T12:05:47;23.30;80.30
20795;DHT22;28087;-33.874;151.240;2023-03-14T12:08:43;23.40;80.30
20795;DHT22;28087;-33.874;151.240;2023-03-14T12:11:30;23.40;80.30
20795;DHT22;28087;-33.874;151.240;2023-03-14T12:14:19;23.40;80.30
20795;DHT22;28087;-33.874;151.240;2023-03-14T12:16:56;23.40;80.30
20795;DHT22;28087;-33.874;151.240;2023-03-14T12:19:35;23.40;80.30
20795;DHT22;28087;-33.874;151.240;2023-03-14T12:22:26;23.40;80.30
20795;DHT22;28087;-33.874;151.240;2023-03-14T12:25:06;23.40;80.30
20795;DHT22;28087;-33.874;151.240;2023-03-14T12:28:14;23.30;80.30
20795;DHT22;28087;-33.874;151.240;2023-03-14T12:30:51;23.30;80.30
20795;DHT22;28087;-33.874;151.240;2023-03-14T12:33:30;23.20;80.30
20795;DHT22;28087;-33.874;151.240;2023-03-14T12:39:22;23.20;80.30
20795;DHT22;28087;-33.874;151.240;2023-03-14T12:42:04;23.20;80.30
20795;DHT22;28087;-33.874;151.240;2023-03-14T12:44:42;23.20;80.30
20795;DHT22;28087;-33.874;151.240;2023-03-14T12:50:26;23.10;80.30
20795;DHT22;28087;-33.874;151.240;2023-03-14T12:53:44;23.10;80.30
20795;DHT22;28087;-33.874;151.240;2023-03-14T12:56:34;23.10;80.30
20795;DHT22;28087;-33.874;151.240;2023-03-14T12:59:31;23.10;80.30
20795;DHT22;28087;-33.874;151.240;2023-03-14T13:02:25;23.10;80.30
20795;DHT22;28087;-33.874;151.240;2023-03-14T13:05:06;23.10;80.30
20795;DHT22;28087;-33.874;151.240;2023-03-14T13:08:03;23.00;80.30
20795;DHT22;28087;-33.874;151.240;2023-03-14T13:10:45;23.10;80.30
20795;DHT22;28087;-33.874;151.240;2023-03-14T13:13:26;23.00;80.30
20795;DHT22;28087;-33.874;151.240;2023-03-14T13:16:02;23.00;80.30
20795;DHT22;28087;-33.874;151.240;2023-03-14T13:18:40;23.10;80.30
20795;DHT22;28087;-33.874;151.240;2023-03-14T13:21:18;23.00;80.30
20795;DHT22;28087;-33.874;151.240;2023-03-14T13:23:59;23.00;80.30
20795;DHT22;28087;-33.874;151.240;2023-03-14T13:26:35;23.00;80.30
20795;DHT22;28087;-33.874;151.240;2023-03-14T13:29:16;23.10;80.30
20795;DHT22;28087;-33.874;151.240;2023-03-14T13:31:53;23.00;80.30
20795;DHT22;28087;-33.874;151.240;2023-03-14T13:34:32;23.10;80.30
20795;DHT22;28087;-33.874;151.240;2023-03-14T13:37:19;23.10;80.30
20795;DHT22;28087;-33.874;151.240;2023-03-14T13:39:56;23.20;80.30
20795;DHT22;28087;-33.874;151.240;2023-03-14T13:42:32;23.10;80.30
20795;DHT22;28087;-33.874;151.240;2023-03-14T13:45:14;23.10;80.30
20795;DHT22;28087;-33.874;151.240;2023-03-14T13:47:52;23.00;80.30
20795;DHT22;28087;-33.874;151.240;2023-03-14T13:50:29;23.10;80.30
20795;DHT22;28087;-33.874;151.240;2023-03-14T13:53:04;23.10;80.30
20795;DHT22;28087;-33.874;151.240;2023-03-14T13:55:40;23.10;80.30
20795;DHT22;28087;-33.874;151.240;2023-03-14T13:58:26;23.10;80.30
20795;DHT22;28087;-33.874;151.240;2023-03-14T14:01:13;23.10;80.30
20795;DHT22;28087;-33.874;151.240;2023-03-14T14:03:50;23.10;80.30
20795;DHT22;28087;-33.874;151.240;2023-03-14T14:06:30;23.00;80.30
20795;DHT22;28087;-33.874;151.240;2023-03-14T14:09:12;23.10;80.30
20795;DHT22;28087;-33.874;151.240;2023-03-14T14:11:53;23.10;80.30
20795;DHT22;28087;-33.874;151.240;2023-03-14T14:14:47;23.10;80.30
20795;DHT22;28087;-33.874;151.240;2023-03-14T14:17:32;23.00;80.30
20795;DHT22;28087;-33.874;151.240;2023-03-14T14:20:13;23.10;80.30
20795;DHT22;28087;-33.874;151.240;2023-03-14T14:22:54;23.00;80.30
20795;DHT22;28087;-33.874;151.240;2023-03-14T14:25:30;23.00;80.30
20795;DHT22;28087;-33.874;151.240;2023-03-14T14:28:17;23.00;80.30
20795;DHT22;28087;-33.874;151.240;2023-03-14T14:31:17;23.00;80.30
20795;DHT22;28087;-33.874;151.240;2023-03-14T14:34:00;23.00;80.30
20795;DHT22;28087;-33.874;151.240;2023-03-14T14:36:39;22.90;80.30
20795;DHT22;28087;-33.874;151.240;2023-03-14T14:39:19;23.00;80.30
20795;DHT22;28087;-33.874;151.240;2023-03-14T14:41:55;22.90;80.30
20795;DHT22;28087;-33.874;151.240;2023-03-14T14:44:32;22.90;80.30
20795;DHT22;28087;-33.874;151.240;2023-03-14T14:47:11;22.90;80.30
20795;DHT22;28087;-33.874;151.240;2023-03-14T14:49:51;22.90;80.30
20795;DHT22;28087;-33.874;151.240;2023-03-14T14:52:36;22.90;80.30
20795;DHT22;28087;-33.874;151.240;2023-03-14T14:55:16;22.80;80.30
20795;DHT22;28087;-33.874;151.240;2023-03-14T14:57:54;22.90;80.30
20795;DHT22;28087;-33.874;151.240;2023-03-14T15:00:30;22.80;80.30
20795;DHT22;28087;-33.874;151.240;2023-03-14T15:03:10;22.80;80.30
20795;DHT22;28087;-33.874;151.240;2023-03-14T15:05:49;22.80;80.30
20795;DHT22;28087;-33.874;151.240;2023-03-14T15:08:26;22.80;80.30
20795;DHT22;28087;-33.874;151.240;2023-03-14T15:11:02;22.80;80.30
20795;DHT22;28087;-33.874;151.240;2023-03-14T15:13:37;22.90;80.30
20795;DHT22;28087;-33.874;151.240;2023-03-14T15:16:14;22.80;80.30
20795;DHT22;28087;-33.874;151.240;2023-03-14T15:18:53;22.90;80.30
20795;DHT22;28087;-33.874;151.240;2023-03-14T15:21:34;22.80;80.30
20795;DHT22;28087;-33.874;151.240;2023-03-14T15:24:11;22.80;80.30
20795;DHT22;28087;-33.874;151.240;2023-03-14T15:26:46;22.80;80.30
20795;DHT22;28087;-33.874;151.240;2023-03-14T15:29:23;22.80;80.30
20795;DHT22;28087;-33.874;151.240;2023-03-14T15:32:00;22.90;80.30
20795;DHT22;28087;-33.874;151.240;2023-03-14T15:34:38;22.80;80.30
20795;DHT22;28087;-33.874;151.240;2023-03-14T15:37:16;22.80;80.30
20795;DHT22;28087;-33.874;151.240;2023-03-14T15:39:52;22.80;80.30
20795;DHT22;28087;-33.874;151.240;2023-03-14T15:42:30;22.80;80.30
20795;DHT22;28087;-33.874;151.240;2023-03-14T15:45:05;22.90;80.30
20795;DHT22;28087;-33.874;151.240;2023-03-14T15:47:41;22.90;80.30
20795;DHT22;28087;-33.874;151.240;2023-03-14T15:50:16;22.80;80.30
20795;DHT22;28087;-33.874;151.240;2023-03-14T15:52:54;22.80;80.30
20795;DHT22;28087;-33.874;151.240;2023-03-14T15:55:30;22.80;80.30
20795;DHT22;28087;-33.874;151.240;2023-03-14T15:58:06;22.70;80.30
20795;DHT22;28087;-33.874;151.240;2023-03-14T16:00:41;22.80;80.30
20795;DHT22;28087;-33.874;151.240;2023-03-14T16:03:18;22.70;80.30
20795;DHT22;28087;-33.874;151.240;2023-03-14T16:05:53;22.70;80.30
20795;DHT22;28087;-33.874;151.240;2023-03-14T16:08:31;22.70;80.30
20795;DHT22;28087;-33.874;151.240;2023-03-14T16:11:08;22.70;80.30
20795;DHT22;28087;-33.874;151.240;2023-03-14T16:13:44;22.70;80.30
20795;DHT22;28087;-33.874;151.240;2023-03-14T16:16:19;22.70;80.30